sensor_id;sensor_type;location;lat;lon;timestamp;P1;durP1;ratioP1;P2;durP2;ratioP2
16828;SDS011;8531;48.078;11.968;2022-08-07T00:00:37;7.75;;;6.95;;
16828;SDS011;8531;48.078;11.968;2022-08-07T00:03:02;9.35;;;8.13;;
16828;SDS011;8531;48.078;11.968;2022-08-07T00:05:28;8.05;;;7.25;;
16828;SDS011;8531;48.078;11.968;2022-08-07T00:07:54;8.45;;;6.90;;
16828;SDS011;8531;48.078;11.968;2022-08-07T00:10:20;7.50;;;6.80;;
16828;SDS011;8531;48.078;11.968;2022-08-07T00:12:47;7.30;;;6.57;;
16828;SDS011;8531;48.078;11.968;2022-08-07T00:15:13;6.65;;;6.05;;
16828;SDS011;8531;48.078;11.968;2022-08-07T00:17:39;6.20;;;5.60;;
16828;SDS011;8531;48.078;11.968;2022-08-07T00:20:05;7.63;;;5.90;;
16828;SDS011;8531;48.078;11.968;2022-08-07T00:22:32;8.55;;;6.13;;
16828;SDS011;8531;48.078;11.968;2022-08-07T00:24:58;7.30;;;6.60;;
16828;SDS011;8531;48.078;11.968;2022-08-07T00:27:23;7.28;;;5.53;;
16828;SDS011;8531;48.078;11.968;2022-08-07T00:29:49;8.10;;;5.82;;
16828;SDS011;8531;48.078;11.968;2022-08-07T00:32:15;6.85;;;6.15;;
16828;SDS011;8531;48.078;11.968;2022-08-07T00:34:40;6.55;;;5.95;;
16828;SDS011;8531;48.078;11.968;2022-08-07T00:37:06;6.43;;;5.60;;
16828;SDS011;8531;48.078;11.968;2022-08-07T00:39:33;7.53;;;5.65;;
16828;SDS011;8531;48.078;11.968;2022-08-07T00:41:59;6.00;;;5.10;;
16828;SDS011;8531;48.078;11.968;2022-08-07T00:44:25;4.97;;;4.53;;
16828;SDS011;8531;48.078;11.968;2022-08-07T00:46:51;5.68;;;5.18;;
16828;SDS011;8531;48.078;11.968;2022-08-07T00:49:16;6.55;;;5.95;;
16828;SDS011;8531;48.078;11.968;2022-08-07T00:51:43;5.32;;;4.50;;
16828;SDS011;8531;48.078;11.968;2022-08-07T00:54:09;5.50;;;4.47;;
16828;SDS011;8531;48.078;11.968;2022-08-07T00:56:35;5.53;;;5.07;;
16828;SDS011;8531;48.078;11.968;2022-08-07T00:59:01;7.93;;;5.65;;
16828;SDS011;8531;48.078;11.968;2022-08-07T01:01:27;5.65;;;5.05;;
16828;SDS011;8531;48.078;11.968;2022-08-07T01:03:53;5.78;;;5.07;;
16828;SDS011;8531;48.078;11.968;2022-08-07T01:06:19;5.35;;;4.85;;
16828;SDS011;8531;48.078;11.968;2022-08-07T01:08:45;4.35;;;3.97;;
16828;SDS011;8531;48.078;11.968;2022-08-07T01:11:13;5.38;;;4.88;;
16828;SDS011;8531;48.078;11.968;2022-08-07T01:13:39;4.90;;;4.43;;
16828;SDS011;8531;48.078;11.968;2022-08-07T01:16:05;6.00;;;5.00;;
16828;SDS011;8531;48.078;11.968;2022-08-07T01:18:32;4.40;;;3.88;;
16828;SDS011;8531;48.078;11.968;2022-08-07T01:21:07;5.22;;;4.50;;
16828;SDS011;8531;48.078;11.968;2022-08-07T01:23:44;5.15;;;4.10;;
16828;SDS011;8531;48.078;11.968;2022-08-07T01:26:11;3.97;;;3.47;;
16828;SDS011;8531;48.078;11.968;2022-08-07T01:28:40;6.93;;;4.55;;
16828;SDS011;8531;48.078;11.968;2022-08-07T01:31:07;4.75;;;4.45;;
16828;SDS011;8531;48.078;11.968;2022-08-07T01:33:33;4.88;;;4.18;;
16828;SDS011;8531;48.078;11.968;2022-08-07T01:35:59;5.80;;;4.65;;
16828;SDS011;8531;48.078;11.968;2022-08-07T01:38:26;5.07;;;4.55;;
16828;SDS011;8531;48.078;11.968;2022-08-07T01:40:53;7.65;;;4.40;;
16828;SDS011;8531;48.078;11.968;2022-08-07T01:43:22;4.75;;;4.35;;
16828;SDS011;8531;48.078;11.968;2022-08-07T01:45:48;4.50;;;4.10;;
16828;SDS011;8531;48.078;11.968;2022-08-07T01:48:14;4.07;;;3.63;;
16828;SDS011;8531;48.078;11.968;2022-08-07T01:50:40;6.55;;;3.78;;
16828;SDS011;8531;48.078;11.968;2022-08-07T01:53:09;4.47;;;3.65;;
16828;SDS011;8531;48.078;11.968;2022-08-07T01:55:38;5.90;;;4.07;;
16828;SDS011;8531;48.078;11.968;2022-08-07T01:58:09;4.65;;;4.18;;
16828;SDS011;8531;48.078;11.968;2022-08-07T02:00:38;4.03;;;3.03;;
16828;SDS011;8531;48.078;11.968;2022-08-07T02:03:06;5.35;;;3.75;;
16828;SDS011;8531;48.078;11.968;2022-08-07T02:05:37;6.07;;;3.65;;
16828;SDS011;8531;48.078;11.968;2022-08-07T02:08:08;4.13;;;3.13;;
16828;SDS011;8531;48.078;11.968;2022-08-07T02:10:36;3.42;;;3.13;;
16828;SDS011;8531;48.078;11.968;2022-08-07T02:13:04;4.40;;;3.15;;
16828;SDS011;8531;48.078;11.968;2022-08-07T02:15:31;3.45;;;3.15;;
16828;SDS011;8531;48.078;11.968;2022-08-07T02:17:59;7.05;;;3.40;;
16828;SDS011;8531;48.078;11.968;2022-08-07T02:20:26;4.70;;;3.20;;
16828;SDS011;8531;48.078;11.968;2022-08-07T02:23:04;5.80;;;2.92;;
16828;SDS011;8531;48.078;11.968;2022-08-07T02:25:32;3.58;;;2.42;;
16828;SDS011;8531;48.078;11.968;2022-08-07T02:28:00;2.90;;;2.70;;
16828;SDS011;8531;48.078;11.968;2022-08-07T02:30:27;3.97;;;2.63;;
16828;SDS011;8531;48.078;11.968;2022-08-07T02:32:54;2.60;;;2.40;;
16828;SDS011;8531;48.078;11.968;2022-08-07T02:35:22;4.55;;;2.40;;
16828;SDS011;8531;48.078;11.968;2022-08-07T02:37:49;2.45;;;2.25;;
16828;SDS011;8531;48.078;11.968;2022-08-07T02:40:16;3.70;;;2.50;;
16828;SDS011;8531;48.078;11.968;2022-08-07T02:42:42;2.25;;;1.90;;
16828;SDS011;8531;48.078;11.968;2022-08-07T02:45:09;6.25;;;2.03;;
16828;SDS011;8531;48.078;11.968;2022-08-07T02:47:39;2.40;;;1.70;;
16828;SDS011;8531;48.078;11.968;2022-08-07T02:50:05;4.07;;;2.20;;
16828;SDS011;8531;48.078;11.968;2022-08-07T02:52:32;3.88;;;1.95;;
16828;SDS011;8531;48.078;11.968;2022-08-07T02:55:14;3.95;;;1.85;;
16828;SDS011;8531;48.078;11.968;2022-08-07T02:57:46;2.83;;;2.05;;
16828;SDS011;8531;48.078;11.968;2022-08-07T03:00:13;4.10;;;2.20;;
16828;SDS011;8531;48.078;11.968;2022-08-07T03:02:40;3.58;;;2.17;;
16828;SDS011;8531;48.078;11.968;2022-08-07T03:05:09;2.03;;;1.83;;
16828;SDS011;8531;48.078;11.968;2022-08-07T03:07:36;2.42;;;2.22;;
16828;SDS011;8531;48.078;11.968;2022-08-07T03:10:02;2.92;;;2.40;;
16828;SDS011;8531;48.078;11.968;2022-08-07T03:12:29;2.40;;;2.20;;
16828;SDS011;8531;48.078;11.968;2022-08-07T03:14:56;4.75;;;2.20;;
16828;SDS011;8531;48.078;11.968;2022-08-07T03:17:22;2.42;;;2.05;;
16828;SDS011;8531;48.078;11.968;2022-08-07T03:19:52;3.40;;;2.42;;
16828;SDS011;8531;48.078;11.968;2022-08-07T03:22:18;2.60;;;2.25;;
16828;SDS011;8531;48.078;11.968;2022-08-07T03:24:46;3.20;;;2.20;;
16828;SDS011;8531;48.078;11.968;2022-08-07T03:27:12;3.05;;;2.50;;
16828;SDS011;8531;48.078;11.968;2022-08-07T03:29:46;2.67;;;2.40;;
16828;SDS011;8531;48.078;11.968;2022-08-07T03:32:14;2.47;;;1.95;;
16828;SDS011;8531;48.078;11.968;2022-08-07T03:34:43;3.22;;;2.50;;
16828;SDS011;8531;48.078;11.968;2022-08-07T03:37:11;3.30;;;2.58;;
16828;SDS011;8531;48.078;11.968;2022-08-07T03:39:38;3.00;;;2.60;;
16828;SDS011;8531;48.078;11.968;2022-08-07T03:42:05;2.60;;;2.40;;
16828;SDS011;8531;48.078;11.968;2022-08-07T03:44:32;2.65;;;2.45;;
16828;SDS011;8531;48.078;11.968;2022-08-07T03:46:59;2.47;;;2.28;;
16828;SDS011;8531;48.078;11.968;2022-08-07T03:49:26;2.38;;;2.17;;
16828;SDS011;8531;48.078;11.968;2022-08-07T03:51:52;3.85;;;2.20;;
16828;SDS011;8531;48.078;11.968;2022-08-07T03:54:19;2.65;;;2.42;;
16828;SDS011;8531;48.078;11.968;2022-08-07T03:56:45;3.08;;;1.63;;
16828;SDS011;8531;48.078;11.968;2022-08-07T03:59:12;2.45;;;2.25;;
16828;SDS011;8531;48.078;11.968;2022-08-07T04:01:39;7.32;;;2.58;;
16828;SDS011;8531;48.078;11.968;2022-08-07T04:04:06;3.15;;;2.28;;
16828;SDS011;8531;48.078;11.968;2022-08-07T04:06:32;4.50;;;2.40;;
16828;SDS011;8531;48.078;11.968;2022-08-07T04:09:00;4.70;;;2.30;;
16828;SDS011;8531;48.078;11.968;2022-08-07T04:11:27;2.42;;;2.22;;
16828;SDS011;8531;48.078;11.968;2022-08-07T04:13:53;2.65;;;2.45;;
16828;SDS011;8531;48.078;11.968;2022-08-07T04:16:20;2.55;;;2.35;;
16828;SDS011;8531;48.078;11.968;2022-08-07T04:18:46;3.25;;;2.30;;
16828;SDS011;8531;48.078;11.968;2022-08-07T04:21:12;3.67;;;2.40;;
16828;SDS011;8531;48.078;11.968;2022-08-07T04:23:38;3.67;;;2.22;;
16828;SDS011;8531;48.078;11.968;2022-08-07T04:26:07;3.60;;;2.25;;
16828;SDS011;8531;48.078;11.968;2022-08-07T04:28:33;4.38;;;2.17;;
16828;SDS011;8531;48.078;11.968;2022-08-07T04:30:58;2.33;;;2.10;;
16828;SDS011;8531;48.078;11.968;2022-08-07T04:33:25;3.67;;;2.08;;
16828;SDS011;8531;48.078;11.968;2022-08-07T04:35:51;4.72;;;2.50;;
16828;SDS011;8531;48.078;11.968;2022-08-07T04:38:18;3.45;;;2.13;;
16828;SDS011;8531;48.078;11.968;2022-08-07T04:40:44;2.42;;;2.17;;
16828;SDS011;8531;48.078;11.968;2022-08-07T04:43:11;2.42;;;2.22;;
16828;SDS011;8531;48.078;11.968;2022-08-07T04:45:52;1.95;;;1.85;;
16828;SDS011;8531;48.078;11.968;2022-08-07T04:51:32;3.83;;;1.63;;
16828;SDS011;8531;48.078;11.968;2022-08-07T04:57:11;2.30;;;2.00;;
16828;SDS011;8531;48.078;11.968;2022-08-07T05:08:06;2.85;;;1.58;;
16828;SDS011;8531;48.078;11.968;2022-08-07T05:10:46;2.60;;;1.90;;
16828;SDS011;8531;48.078;11.968;2022-08-07T05:13:34;2.20;;;1.92;;
16828;SDS011;8531;48.078;11.968;2022-08-07T05:16:04;2.05;;;1.85;;
16828;SDS011;8531;48.078;11.968;2022-08-07T05:18:39;3.53;;;1.77;;
16828;SDS011;8531;48.078;11.968;2022-08-07T05:21:09;6.68;;;1.80;;
16828;SDS011;8531;48.078;11.968;2022-08-07T05:23:38;3.03;;;1.50;;
16828;SDS011;8531;48.078;11.968;2022-08-07T05:26:04;3.00;;;1.88;;
16828;SDS011;8531;48.078;11.968;2022-08-07T05:28:35;1.50;;;1.40;;
16828;SDS011;8531;48.078;11.968;2022-08-07T05:31:02;3.35;;;1.65;;
16828;SDS011;8531;48.078;11.968;2022-08-07T05:33:30;2.33;;;1.63;;
16828;SDS011;8531;48.078;11.968;2022-08-07T05:35:59;1.83;;;1.70;;
16828;SDS011;8531;48.078;11.968;2022-08-07T05:38:26;2.08;;;1.67;;
16828;SDS011;8531;48.078;11.968;2022-08-07T05:40:53;1.55;;;1.45;;
16828;SDS011;8531;48.078;11.968;2022-08-07T05:43:19;2.63;;;1.70;;
16828;SDS011;8531;48.078;11.968;2022-08-07T05:45:46;2.50;;;1.40;;
16828;SDS011;8531;48.078;11.968;2022-08-07T05:48:13;1.63;;;1.48;;
16828;SDS011;8531;48.078;11.968;2022-08-07T05:50:39;5.00;;;1.98;;
16828;SDS011;8531;48.078;11.968;2022-08-07T05:53:06;2.10;;;1.65;;
16828;SDS011;8531;48.078;11.968;2022-08-07T05:55:32;1.80;;;1.60;;
16828;SDS011;8531;48.078;11.968;2022-08-07T05:57:59;2.15;;;1.65;;
16828;SDS011;8531;48.078;11.968;2022-08-07T06:00:27;2.63;;;1.75;;
16828;SDS011;8531;48.078;11.968;2022-08-07T06:02:55;3.42;;;1.90;;
16828;SDS011;8531;48.078;11.968;2022-08-07T06:05:22;2.40;;;1.73;;
16828;SDS011;8531;48.078;11.968;2022-08-07T06:07:52;3.05;;;1.80;;
16828;SDS011;8531;48.078;11.968;2022-08-07T06:10:19;1.55;;;1.45;;
16828;SDS011;8531;48.078;11.968;2022-08-07T06:12:45;1.85;;;1.60;;
16828;SDS011;8531;48.078;11.968;2022-08-07T06:15:13;1.75;;;1.60;;
16828;SDS011;8531;48.078;11.968;2022-08-07T06:17:40;1.70;;;1.60;;
16828;SDS011;8531;48.078;11.968;2022-08-07T06:20:07;2.17;;;1.90;;
16828;SDS011;8531;48.078;11.968;2022-08-07T06:22:34;2.78;;;1.80;;
16828;SDS011;8531;48.078;11.968;2022-08-07T06:25:02;1.95;;;1.70;;
16828;SDS011;8531;48.078;11.968;2022-08-07T06:27:29;2.90;;;1.73;;
16828;SDS011;8531;48.078;11.968;2022-08-07T06:29:54;1.90;;;1.70;;
16828;SDS011;8531;48.078;11.968;2022-08-07T06:32:20;2.95;;;1.98;;
16828;SDS011;8531;48.078;11.968;2022-08-07T06:34:46;1.83;;;1.40;;
16828;SDS011;8531;48.078;11.968;2022-08-07T06:37:11;1.80;;;1.70;;
16828;SDS011;8531;48.078;11.968;2022-08-07T06:39:37;4.18;;;1.92;;
16828;SDS011;8531;48.078;11.968;2022-08-07T06:42:03;3.47;;;2.40;;
16828;SDS011;8531;48.078;11.968;2022-08-07T06:44:32;4.90;;;2.08;;
16828;SDS011;8531;48.078;11.968;2022-08-07T06:47:00;2.40;;;1.80;;
16828;SDS011;8531;48.078;11.968;2022-08-07T06:49:26;4.45;;;2.28;;
16828;SDS011;8531;48.078;11.968;2022-08-07T06:51:52;2.17;;;1.98;;
16828;SDS011;8531;48.078;11.968;2022-08-07T06:54:19;2.35;;;2.00;;
16828;SDS011;8531;48.078;11.968;2022-08-07T06:56:45;6.22;;;2.47;;
16828;SDS011;8531;48.078;11.968;2022-08-07T06:59:19;2.72;;;2.03;;
16828;SDS011;8531;48.078;11.968;2022-08-07T07:01:46;2.88;;;1.98;;
16828;SDS011;8531;48.078;11.968;2022-08-07T07:04:13;2.65;;;2.13;;
16828;SDS011;8531;48.078;11.968;2022-08-07T07:06:40;2.40;;;1.80;;
16828;SDS011;8531;48.078;11.968;2022-08-07T07:11:43;5.43;;;2.70;;
16828;SDS011;8531;48.078;11.968;2022-08-07T07:14:18;3.10;;;2.10;;
16828;SDS011;8531;48.078;11.968;2022-08-07T07:16:48;1.73;;;1.63;;
16828;SDS011;8531;48.078;11.968;2022-08-07T07:19:15;1.95;;;1.75;;
16828;SDS011;8531;48.078;11.968;2022-08-07T07:21:49;2.47;;;1.80;;
16828;SDS011;8531;48.078;11.968;2022-08-07T07:24:18;2.05;;;1.73;;
16828;SDS011;8531;48.078;11.968;2022-08-07T07:26:44;2.75;;;1.92;;
16828;SDS011;8531;48.078;11.968;2022-08-07T07:29:12;3.28;;;2.28;;
16828;SDS011;8531;48.078;11.968;2022-08-07T07:31:43;1.95;;;1.70;;
16828;SDS011;8531;48.078;11.968;2022-08-07T07:34:16;2.78;;;1.75;;
16828;SDS011;8531;48.078;11.968;2022-08-07T07:36:45;3.15;;;2.03;;
16828;SDS011;8531;48.078;11.968;2022-08-07T07:39:13;1.48;;;1.27;;
16828;SDS011;8531;48.078;11.968;2022-08-07T07:41:41;2.25;;;1.55;;
16828;SDS011;8531;48.078;11.968;2022-08-07T07:44:11;2.08;;;1.60;;
16828;SDS011;8531;48.078;11.968;2022-08-07T07:46:40;2.20;;;1.77;;
16828;SDS011;8531;48.078;11.968;2022-08-07T07:49:07;2.90;;;1.40;;
16828;SDS011;8531;48.078;11.968;2022-08-07T07:51:34;3.97;;;1.90;;
16828;SDS011;8531;48.078;11.968;2022-08-07T07:54:01;1.58;;;1.45;;
16828;SDS011;8531;48.078;11.968;2022-08-07T07:56:29;1.85;;;1.48;;
16828;SDS011;8531;48.078;11.968;2022-08-07T07:58:59;2.35;;;1.40;;
16828;SDS011;8531;48.078;11.968;2022-08-07T08:01:26;1.70;;;1.60;;
16828;SDS011;8531;48.078;11.968;2022-08-07T08:03:54;2.88;;;1.63;;
16828;SDS011;8531;48.078;11.968;2022-08-07T08:06:24;2.92;;;1.63;;
16828;SDS011;8531;48.078;11.968;2022-08-07T08:08:51;3.53;;;1.60;;
16828;SDS011;8531;48.078;11.968;2022-08-07T08:11:17;2.80;;;1.80;;
16828;SDS011;8531;48.078;11.968;2022-08-07T08:13:45;3.03;;;1.90;;
16828;SDS011;8531;48.078;11.968;2022-08-07T08:16:13;1.67;;;1.50;;
16828;SDS011;8531;48.078;11.968;2022-08-07T08:18:42;1.60;;;1.50;;
16828;SDS011;8531;48.078;11.968;2022-08-07T08:21:10;2.40;;;1.70;;
16828;SDS011;8531;48.078;11.968;2022-08-07T08:23:59;2.83;;;1.50;;
16828;SDS011;8531;48.078;11.968;2022-08-07T08:26:46;3.33;;;1.40;;
16828;SDS011;8531;48.078;11.968;2022-08-07T08:29:30;1.90;;;1.60;;
16828;SDS011;8531;48.078;11.968;2022-08-07T08:32:14;1.80;;;1.50;;
16828;SDS011;8531;48.078;11.968;2022-08-07T08:34:44;3.65;;;2.40;;
16828;SDS011;8531;48.078;11.968;2022-08-07T08:37:12;5.35;;;1.60;;
16828;SDS011;8531;48.078;11.968;2022-08-07T08:39:41;1.33;;;1.08;;
16828;SDS011;8531;48.078;11.968;2022-08-07T08:42:15;1.88;;;1.45;;
16828;SDS011;8531;48.078;11.968;2022-08-07T08:44:52;2.90;;;1.67;;
16828;SDS011;8531;48.078;11.968;2022-08-07T08:52:35;1.92;;;1.52;;
16828;SDS011;8531;48.078;11.968;2022-08-07T08:55:09;3.15;;;1.70;;
16828;SDS011;8531;48.078;11.968;2022-08-07T08:58:23;2.53;;;1.60;;
16828;SDS011;8531;48.078;11.968;2022-08-07T09:00:35;1.95;;;1.30;;
16828;SDS011;8531;48.078;11.968;2022-08-07T09:03:43;1.63;;;1.30;;
16828;SDS011;8531;48.078;11.968;2022-08-07T09:06:10;2.70;;;1.33;;
16828;SDS011;8531;48.078;11.968;2022-08-07T09:08:59;2.08;;;1.48;;
16828;SDS011;8531;48.078;11.968;2022-08-07T09:12:25;1.55;;;1.35;;
16828;SDS011;8531;48.078;11.968;2022-08-07T09:14:41;1.55;;;1.45;;
16828;SDS011;8531;48.078;11.968;2022-08-07T09:17:28;1.35;;;1.25;;
16828;SDS011;8531;48.078;11.968;2022-08-07T09:20:05;2.95;;;1.23;;
16828;SDS011;8531;48.078;11.968;2022-08-07T09:25:25;1.58;;;1.48;;
16828;SDS011;8531;48.078;11.968;2022-08-07T09:28:02;1.45;;;1.20;;
16828;SDS011;8531;48.078;11.968;2022-08-07T09:30:55;2.63;;;1.55;;
16828;SDS011;8531;48.078;11.968;2022-08-07T09:41:43;2.38;;;1.40;;
16828;SDS011;8531;48.078;11.968;2022-08-07T09:52:47;2.63;;;1.50;;
16828;SDS011;8531;48.078;11.968;2022-08-07T10:03:39;3.08;;;1.45;;
16828;SDS011;8531;48.078;11.968;2022-08-07T10:09:06;1.67;;;1.58;;
16828;SDS011;8531;48.078;11.968;2022-08-07T10:11:49;1.98;;;1.80;;
16828;SDS011;8531;48.078;11.968;2022-08-07T10:17:33;1.90;;;1.73;;
16828;SDS011;8531;48.078;11.968;2022-08-07T10:29:16;2.53;;;1.70;;
16828;SDS011;8531;48.078;11.968;2022-08-07T10:40:20;2.70;;;1.75;;
16828;SDS011;8531;48.078;11.968;2022-08-07T10:43:18;2.60;;;1.63;;
16828;SDS011;8531;48.078;11.968;2022-08-07T10:45:56;5.28;;;1.73;;
16828;SDS011;8531;48.078;11.968;2022-08-07T10:51:23;4.75;;;2.05;;
16828;SDS011;8531;48.078;11.968;2022-08-07T10:57:05;1.90;;;1.60;;
16828;SDS011;8531;48.078;11.968;2022-08-07T11:00:02;3.22;;;1.70;;
16828;SDS011;8531;48.078;11.968;2022-08-07T11:02:34;2.00;;;1.50;;
16828;SDS011;8531;48.078;11.968;2022-08-07T11:13:09;2.05;;;1.50;;
16828;SDS011;8531;48.078;11.968;2022-08-07T11:15:49;2.38;;;1.48;;
16828;SDS011;8531;48.078;11.968;2022-08-07T11:18:20;1.90;;;1.60;;
16828;SDS011;8531;48.078;11.968;2022-08-07T11:26:09;4.55;;;1.55;;
16828;SDS011;8531;48.078;11.968;2022-08-07T11:28:50;2.20;;;1.70;;
16828;SDS011;8531;48.078;11.968;2022-08-07T11:31:30;3.38;;;1.50;;
16828;SDS011;8531;48.078;11.968;2022-08-07T11:34:18;3.22;;;1.60;;
16828;SDS011;8531;48.078;11.968;2022-08-07T11:40:09;2.92;;;1.75;;
16828;SDS011;8531;48.078;11.968;2022-08-07T11:51:37;4.25;;;1.67;;
16828;SDS011;8531;48.078;11.968;2022-08-07T11:55:11;1.45;;;1.25;;
16828;SDS011;8531;48.078;11.968;2022-08-07T12:00:10;1.73;;;1.30;;
16828;SDS011;8531;48.078;11.968;2022-08-07T12:08:31;2.65;;;1.00;;
16828;SDS011;8531;48.078;11.968;2022-08-07T12:14:33;2.25;;;1.65;;
16828;SDS011;8531;48.078;11.968;2022-08-07T12:16:53;1.45;;;1.05;;
16828;SDS011;8531;48.078;11.968;2022-08-07T12:24:45;2.15;;;1.23;;
16828;SDS011;8531;48.078;11.968;2022-08-07T12:27:36;1.40;;;1.27;;
16828;SDS011;8531;48.078;11.968;2022-08-07T12:30:08;2.45;;;1.33;;
16828;SDS011;8531;48.078;11.968;2022-08-07T12:32:49;1.17;;;1.10;;
16828;SDS011;8531;48.078;11.968;2022-08-07T12:35:22;1.67;;;1.45;;
16828;SDS011;8531;48.078;11.968;2022-08-07T12:37:49;1.55;;;1.02;;
16828;SDS011;8531;48.078;11.968;2022-08-07T12:40:18;3.13;;;1.13;;
16828;SDS011;8531;48.078;11.968;2022-08-07T12:42:46;1.50;;;1.10;;
16828;SDS011;8531;48.078;11.968;2022-08-07T12:45:17;1.35;;;1.13;;
16828;SDS011;8531;48.078;11.968;2022-08-07T12:48:01;1.70;;;1.20;;
16828;SDS011;8531;48.078;11.968;2022-08-07T12:50:48;1.23;;;1.02;;
16828;SDS011;8531;48.078;11.968;2022-08-07T12:55:59;1.55;;;1.40;;
16828;SDS011;8531;48.078;11.968;2022-08-07T12:58:36;3.28;;;1.20;;
16828;SDS011;8531;48.078;11.968;2022-08-07T13:06:37;1.35;;;1.20;;
16828;SDS011;8531;48.078;11.968;2022-08-07T13:09:49;1.50;;;1.30;;
16828;SDS011;8531;48.078;11.968;2022-08-07T13:13:09;3.80;;;1.38;;
16828;SDS011;8531;48.078;11.968;2022-08-07T13:21:29;3.20;;;1.42;;
16828;SDS011;8531;48.078;11.968;2022-08-07T13:24:05;1.50;;;1.30;;
16828;SDS011;8531;48.078;11.968;2022-08-07T13:26:48;1.67;;;1.00;;
16828;SDS011;8531;48.078;11.968;2022-08-07T13:29:24;1.70;;;1.35;;
16828;SDS011;8531;48.078;11.968;2022-08-07T13:32:00;3.92;;;1.60;;
16828;SDS011;8531;48.078;11.968;2022-08-07T13:34:34;1.73;;;1.30;;
16828;SDS011;8531;48.078;11.968;2022-08-07T13:37:07;1.70;;;1.58;;
16828;SDS011;8531;48.078;11.968;2022-08-07T13:39:45;1.40;;;1.30;;
16828;SDS011;8531;48.078;11.968;2022-08-07T13:42:22;2.00;;;1.40;;
16828;SDS011;8531;48.078;11.968;2022-08-07T13:44:49;2.53;;;1.38;;
16828;SDS011;8531;48.078;11.968;2022-08-07T13:47:18;2.05;;;1.48;;
16828;SDS011;8531;48.078;11.968;2022-08-07T13:49:46;1.40;;;1.30;;
16828;SDS011;8531;48.078;11.968;2022-08-07T13:52:13;1.85;;;1.23;;
16828;SDS011;8531;48.078;11.968;2022-08-07T13:54:46;1.40;;;1.30;;
16828;SDS011;8531;48.078;11.968;2022-08-07T13:57:12;2.00;;;1.80;;
16828;SDS011;8531;48.078;11.968;2022-08-07T13:59:44;1.92;;;1.50;;
16828;SDS011;8531;48.078;11.968;2022-08-07T14:02:20;2.67;;;1.65;;
16828;SDS011;8531;48.078;11.968;2022-08-07T14:04:53;2.08;;;1.70;;
16828;SDS011;8531;48.078;11.968;2022-08-07T14:07:28;3.15;;;1.90;;
16828;SDS011;8531;48.078;11.968;2022-08-07T14:09:57;2.33;;;1.58;;
16828;SDS011;8531;48.078;11.968;2022-08-07T14:12:29;2.97;;;1.77;;
16828;SDS011;8531;48.078;11.968;2022-08-07T14:15:02;2.65;;;1.85;;
16828;SDS011;8531;48.078;11.968;2022-08-07T14:17:30;1.50;;;1.40;;
16828;SDS011;8531;48.078;11.968;2022-08-07T14:23:00;3.65;;;1.80;;
16828;SDS011;8531;48.078;11.968;2022-08-07T14:25:53;4.13;;;2.60;;
16828;SDS011;8531;48.078;11.968;2022-08-07T14:28:23;2.65;;;1.80;;
16828;SDS011;8531;48.078;11.968;2022-08-07T14:30:50;2.53;;;1.80;;
16828;SDS011;8531;48.078;11.968;2022-08-07T14:33:16;1.73;;;1.63;;
16828;SDS011;8531;48.078;11.968;2022-08-07T14:35:43;3.03;;;2.08;;
16828;SDS011;8531;48.078;11.968;2022-08-07T14:38:11;1.98;;;1.80;;
16828;SDS011;8531;48.078;11.968;2022-08-07T14:40:38;2.55;;;1.70;;
16828;SDS011;8531;48.078;11.968;2022-08-07T14:43:11;2.83;;;1.60;;
16828;SDS011;8531;48.078;11.968;2022-08-07T14:45:41;2.22;;;1.85;;
16828;SDS011;8531;48.078;11.968;2022-08-07T14:48:12;1.73;;;1.63;;
16828;SDS011;8531;48.078;11.968;2022-08-07T14:50:51;3.35;;;1.73;;
16828;SDS011;8531;48.078;11.968;2022-08-07T14:53:19;2.08;;;1.75;;
16828;SDS011;8531;48.078;11.968;2022-08-07T14:55:48;2.15;;;1.80;;
16828;SDS011;8531;48.078;11.968;2022-08-07T14:58:14;2.30;;;1.50;;
16828;SDS011;8531;48.078;11.968;2022-08-07T15:00:46;2.03;;;1.90;;
16828;SDS011;8531;48.078;11.968;2022-08-07T15:03:15;2.15;;;1.95;;
16828;SDS011;8531;48.078;11.968;2022-08-07T15:05:46;3.17;;;1.70;;
16828;SDS011;8531;48.078;11.968;2022-08-07T15:08:21;3.58;;;1.45;;
16828;SDS011;8531;48.078;11.968;2022-08-07T15:10:54;1.83;;;1.70;;
16828;SDS011;8531;48.078;11.968;2022-08-07T15:13:21;1.77;;;1.65;;
16828;SDS011;8531;48.078;11.968;2022-08-07T15:15:50;1.45;;;1.35;;
16828;SDS011;8531;48.078;11.968;2022-08-07T15:18:30;2.70;;;1.75;;
16828;SDS011;8531;48.078;11.968;2022-08-07T15:21:24;3.10;;;2.50;;
16828;SDS011;8531;48.078;11.968;2022-08-07T15:24:03;3.78;;;1.70;;
16828;SDS011;8531;48.078;11.968;2022-08-07T15:26:37;2.22;;;1.65;;
16828;SDS011;8531;48.078;11.968;2022-08-07T15:29:19;2.72;;;1.60;;
16828;SDS011;8531;48.078;11.968;2022-08-07T15:31:46;4.20;;;1.77;;
16828;SDS011;8531;48.078;11.968;2022-08-07T15:34:14;2.03;;;1.70;;
16828;SDS011;8531;48.078;11.968;2022-08-07T15:36:42;4.18;;;1.70;;
16828;SDS011;8531;48.078;11.968;2022-08-07T15:39:09;3.72;;;1.90;;
16828;SDS011;8531;48.078;11.968;2022-08-07T15:41:37;2.50;;;1.90;;
16828;SDS011;8531;48.078;11.968;2022-08-07T15:44:20;2.15;;;1.88;;
16828;SDS011;8531;48.078;11.968;2022-08-07T15:46:51;2.60;;;1.95;;
16828;SDS011;8531;48.078;11.968;2022-08-07T15:49:25;3.10;;;1.90;;
16828;SDS011;8531;48.078;11.968;2022-08-07T15:51:54;2.47;;;2.05;;
16828;SDS011;8531;48.078;11.968;2022-08-07T15:54:21;3.17;;;2.17;;
16828;SDS011;8531;48.078;11.968;2022-08-07T15:56:48;2.00;;;1.75;;
16828;SDS011;8531;48.078;11.968;2022-08-07T15:59:15;2.10;;;1.80;;
16828;SDS011;8531;48.078;11.968;2022-08-07T16:01:48;2.30;;;2.10;;
16828;SDS011;8531;48.078;11.968;2022-08-07T16:04:15;2.58;;;1.80;;
16828;SDS011;8531;48.078;11.968;2022-08-07T16:06:50;1.92;;;1.60;;
16828;SDS011;8531;48.078;11.968;2022-08-07T16:23:15;3.97;;;2.13;;
16828;SDS011;8531;48.078;11.968;2022-08-07T16:31:55;2.45;;;1.80;;
16828;SDS011;8531;48.078;11.968;2022-08-07T16:34:06;1.73;;;1.60;;
16828;SDS011;8531;48.078;11.968;2022-08-07T16:45:16;2.00;;;1.80;;
16828;SDS011;8531;48.078;11.968;2022-08-07T16:58:47;2.00;;;1.60;;
16828;SDS011;8531;48.078;11.968;2022-08-07T17:15:28;1.98;;;1.45;;
16828;SDS011;8531;48.078;11.968;2022-08-07T17:21:00;1.92;;;1.70;;
16828;SDS011;8531;48.078;11.968;2022-08-07T17:23:36;2.53;;;1.83;;
16828;SDS011;8531;48.078;11.968;2022-08-07T17:26:22;2.15;;;1.95;;
16828;SDS011;8531;48.078;11.968;2022-08-07T17:34:11;2.25;;;1.45;;
16828;SDS011;8531;48.078;11.968;2022-08-07T17:36:44;5.28;;;1.98;;
16828;SDS011;8531;48.078;11.968;2022-08-07T17:45:05;1.98;;;1.77;;
16828;SDS011;8531;48.078;11.968;2022-08-07T17:47:46;2.75;;;2.05;;
16828;SDS011;8531;48.078;11.968;2022-08-07T17:50:27;2.75;;;1.85;;
16828;SDS011;8531;48.078;11.968;2022-08-07T17:55:35;1.77;;;1.65;;
16828;SDS011;8531;48.078;11.968;2022-08-07T17:58:11;2.10;;;1.45;;
16828;SDS011;8531;48.078;11.968;2022-08-07T18:00:41;3.30;;;2.10;;
16828;SDS011;8531;48.078;11.968;2022-08-07T18:03:21;3.35;;;1.65;;
16828;SDS011;8531;48.078;11.968;2022-08-07T18:05:53;1.90;;;1.33;;
16828;SDS011;8531;48.078;11.968;2022-08-07T18:08:24;1.58;;;1.48;;
16828;SDS011;8531;48.078;11.968;2022-08-07T18:13:42;1.92;;;1.67;;
16828;SDS011;8531;48.078;11.968;2022-08-07T18:16:29;2.10;;;1.70;;
16828;SDS011;8531;48.078;11.968;2022-08-07T18:19:12;3.45;;;2.40;;
16828;SDS011;8531;48.078;11.968;2022-08-07T18:21:54;1.83;;;1.73;;
16828;SDS011;8531;48.078;11.968;2022-08-07T18:24:31;5.15;;;1.90;;
16828;SDS011;8531;48.078;11.968;2022-08-07T18:27:15;4.90;;;2.20;;
16828;SDS011;8531;48.078;11.968;2022-08-07T18:35:08;4.03;;;1.70;;
16828;SDS011;8531;48.078;11.968;2022-08-07T18:38:03;2.60;;;1.67;;
16828;SDS011;8531;48.078;11.968;2022-08-07T18:43:19;2.00;;;1.50;;
16828;SDS011;8531;48.078;11.968;2022-08-07T18:46:07;1.77;;;1.65;;
16828;SDS011;8531;48.078;11.968;2022-08-07T18:52:05;1.33;;;1.20;;
16828;SDS011;8531;48.078;11.968;2022-08-07T18:54:52;2.05;;;1.50;;
16828;SDS011;8531;48.078;11.968;2022-08-07T18:58:22;4.00;;;1.67;;